createdAt,value
2019-05-15T00:00:09.108Z,82.96
2019-05-15T00:02:38.730Z,80.60
2019-05-15T00:05:09.152Z,81.54
2019-05-15T00:07:39.285Z,82.81
2019-05-15T00:10:09.054Z,81.65
2019-05-15T00:12:39.659Z,81.34
2019-05-15T00:15:09.348Z,81.24
2019-05-15T00:17:39.484Z,80.65
2019-05-15T00:20:10.051Z,81.66
2019-05-15T00:22:39.086Z,82.00
2019-05-15T00:25:09.332Z,82.79
2019-05-15T00:27:38.819Z,82.99
2019-05-15T00:30:10.008Z,82.63
2019-05-15T00:32:39.533Z,81.97
2019-05-15T00:35:09.451Z,82.24
2019-05-15T00:37:38.882Z,82.33
2019-05-15T00:40:08.770Z,83.44
2019-05-15T00:42:38.530Z,82.42
2019-05-15T00:45:09.494Z,82.29
2019-05-15T00:47:39.643Z,82.30
2019-05-15T00:50:09.529Z,82.40
2019-05-15T00:52:39.294Z,83.19
2019-05-15T00:55:08.996Z,81.94
2019-05-15T00:57:39.190Z,84.07
2019-05-15T01:00:10.036Z,83.98
2019-05-15T01:02:39.057Z,84.38
2019-05-15T01:05:08.437Z,82.90
2019-05-15T01:07:39.167Z,84.51
2019-05-15T01:10:09.824Z,83.53
2019-05-15T01:12:38.681Z,82.64
2019-05-15T01:15:10.549Z,81.72
2019-05-15T01:17:39.492Z,82.37
2019-05-15T01:20:08.868Z,81.36
2019-05-15T01:22:39.433Z,82.21
2019-05-15T01:25:08.630Z,83.09
2019-05-15T01:27:38.592Z,81.71
2019-05-15T01:30:09.118Z,83.11
2019-05-15T01:32:39.598Z,82.63
2019-05-15T01:35:09.713Z,82.69
2019-05-15T01:37:39.030Z,83.27
2019-05-15T01:40:09.033Z,81.73
2019-05-15T01:42:38.994Z,80.89
2019-05-15T01:45:09.650Z,81.48
2019-05-15T01:47:38.920Z,82.23
2019-05-15T01:50:09.510Z,82.17
2019-05-15T01:52:39.112Z,82.29
2019-05-15T01:55:09.199Z,82.08
2019-05-15T01:57:38.470Z,81.72
2019-05-15T02:00:09.749Z,82.35
2019-05-15T02:02:39.232Z,80.96
2019-05-15T02:05:09.085Z,80.14
2019-05-15T02:07:39.075Z,81.44
2019-05-15T02:10:09.099Z,82.21
2019-05-15T02:12:38.960Z,80.88
2019-05-15T02:15:09.687Z,82.44
2019-05-15T02:17:39.159Z,80.93
2019-05-15T02:20:08.825Z,82.98
2019-05-15T02:22:42.059Z,82.53
2019-05-15T02:25:08.705Z,82.51
2019-05-15T02:27:39.334Z,81.96
2019-05-15T02:30:21.383Z,80.35
2019-05-15T02:32:39.703Z,81.89
2019-05-15T02:35:10.302Z,81.73
2019-05-15T02:37:40.866Z,82.13
2019-05-15T02:40:10.635Z,83.61
2019-05-15T02:42:40.393Z,82.93
2019-05-15T02:45:10.588Z,79.91
2019-05-15T02:47:40.151Z,80.82
2019-05-15T02:50:10.846Z,80.25
2019-05-15T02:52:44.575Z,78.31
2019-05-15T02:55:09.960Z,79.43
2019-05-15T02:57:39.554Z,80.56
2019-05-15T03:00:10.847Z,79.58
2019-05-15T03:02:41.377Z,79.06
2019-05-15T03:05:10.642Z,79.97
2019-05-15T03:07:40.310Z,78.69
2019-05-15T03:10:09.763Z,78.34
2019-05-15T03:12:40.916Z,80.72
2019-05-15T03:15:09.667Z,79.83
2019-05-15T03:17:40.405Z,80.13
2019-05-15T03:20:10.695Z,78.75
2019-05-15T03:22:40.513Z,77.89
2019-05-15T03:25:10.973Z,77.28
2019-05-15T03:27:40.308Z,80.74
2019-05-15T03:30:13.682Z,79.22
2019-05-15T03:32:52.028Z,80.49
2019-05-15T03:35:14.164Z,79.90
2019-05-15T03:37:40.636Z,80.86
2019-05-15T03:40:10.543Z,80.62
2019-05-15T03:42:40.057Z,80.32
2019-05-15T03:45:10.414Z,83.00
2019-05-15T03:47:40.173Z,81.12
2019-05-15T03:50:10.065Z,81.09
2019-05-15T03:52:39.610Z,80.57
2019-05-15T03:55:10.572Z,80.95
2019-05-15T03:57:40.268Z,82.07
2019-05-15T04:00:10.149Z,81.69
2019-05-15T04:02:39.605Z,79.73
2019-05-15T04:05:12.009Z,79.18
2019-05-15T04:07:39.736Z,77.71
2019-05-15T04:10:10.291Z,76.97
2019-05-15T04:12:40.576Z,76.87
2019-05-15T04:15:10.589Z,77.40
2019-05-15T04:17:40.303Z,77.35
2019-05-15T04:20:10.138Z,78.12
2019-05-15T04:22:39.983Z,79.01
2019-05-15T04:25:09.997Z,80.07
2019-05-15T04:27:40.937Z,79.83
2019-05-15T04:30:10.600Z,79.51
2019-05-15T04:32:40.424Z,79.30
2019-05-15T04:35:10.362Z,78.67
2019-05-15T04:37:41.100Z,78.70
2019-05-15T04:40:10.319Z,79.18
2019-05-15T04:42:39.701Z,80.22
2019-05-15T04:45:10.283Z,79.11
2019-05-15T04:47:39.821Z,78.58
2019-05-15T04:50:09.498Z,78.51
2019-05-15T04:52:39.404Z,79.37
2019-05-15T04:55:10.155Z,80.59
2019-05-15T04:57:40.394Z,80.86
2019-05-15T05:00:10.186Z,79.61
2019-05-15T05:02:39.847Z,80.13
2019-05-15T05:05:10.304Z,80.79
2019-05-15T05:07:39.557Z,80.51
2019-05-15T05:10:09.958Z,80.52
2019-05-15T05:12:41.968Z,79.75
2019-05-15T05:15:09.288Z,80.38
2019-05-15T05:17:39.071Z,81.52
2019-05-15T05:20:08.392Z,81.65
2019-05-15T05:22:39.252Z,80.79
2019-05-15T05:25:08.318Z,80.28
2019-05-15T05:27:38.315Z,82.12
2019-05-15T05:30:08.398Z,83.02
2019-05-15T05:32:38.883Z,83.64
2019-05-15T05:35:08.816Z,81.68
2019-05-15T05:37:39.043Z,82.14
2019-05-15T05:40:08.260Z,81.72
2019-05-15T05:42:38.874Z,81.12
2019-05-15T05:45:09.379Z,80.89
2019-05-15T05:47:38.356Z,82.72
2019-05-15T05:50:08.125Z,83.61
2019-05-15T05:52:38.900Z,82.09
2019-05-15T05:55:08.839Z,82.28
2019-05-15T05:57:38.224Z,81.46
2019-05-15T06:00:09.638Z,81.32
2019-05-15T06:02:46.756Z,83.36
2019-05-15T06:05:08.573Z,83.37
2019-05-15T06:07:38.677Z,82.09
2019-05-15T06:10:10.346Z,81.91
2019-05-15T06:12:39.426Z,82.16
2019-05-15T06:15:08.851Z,83.42
2019-05-15T06:17:39.132Z,83.71
2019-05-15T06:20:08.417Z,81.92
2019-05-15T06:22:38.837Z,83.07
2019-05-15T06:25:11.155Z,83.91
2019-05-15T06:27:39.077Z,85.18
2019-05-15T06:30:09.307Z,86.75
2019-05-15T06:32:39.851Z,87.39
2019-05-15T06:35:09.101Z,86.75
2019-05-15T06:37:39.555Z,85.59
2019-05-15T06:40:08.660Z,84.55
2019-05-15T06:42:39.295Z,85.11
2019-05-15T06:45:08.702Z,84.97
2019-05-15T06:47:39.447Z,83.70
2019-05-15T06:50:08.711Z,84.24
2019-05-15T06:52:38.009Z,86.12
2019-05-15T06:55:09.117Z,85.34
2019-05-15T06:57:39.375Z,84.19
2019-05-15T07:00:08.412Z,85.40
2019-05-15T07:02:38.260Z,83.80
2019-05-15T07:05:08.181Z,84.58
2019-05-15T07:07:38.627Z,84.77
2019-05-15T07:10:08.969Z,84.36
2019-05-15T07:12:39.249Z,84.35
2019-05-15T07:15:09.113Z,84.82
2019-05-15T07:17:39.266Z,84.59
2019-05-15T07:20:09.886Z,83.92
2019-05-15T07:22:39.185Z,81.83
2019-05-15T07:25:08.979Z,81.13
2019-05-15T07:27:39.104Z,82.93
2019-05-15T07:30:11.928Z,84.39
2019-05-15T07:32:39.934Z,83.06
2019-05-15T07:35:10.323Z,82.79
2019-05-15T07:37:39.100Z,83.46
2019-05-15T07:40:09.122Z,81.32
2019-05-15T07:42:38.649Z,81.79
2019-05-15T07:45:11.201Z,81.82
2019-05-15T07:47:39.741Z,81.01
2019-05-15T07:50:10.685Z,81.75
2019-05-15T07:52:40.340Z,82.98
2019-05-15T07:55:09.890Z,84.74
2019-05-15T07:57:39.580Z,83.78
2019-05-15T08:00:11.133Z,82.75
2019-05-15T08:02:39.681Z,83.56
2019-05-15T08:05:10.529Z,81.36
2019-05-15T08:07:39.834Z,81.39
2019-05-15T08:10:10.043Z,80.76
2019-05-15T08:12:39.127Z,82.56
2019-05-15T08:15:10.486Z,81.07
2019-05-15T08:17:58.559Z,81.36
2019-05-15T08:20:11.790Z,82.27
2019-05-15T08:22:40.443Z,83.23
2019-05-15T08:25:13.100Z,80.72
2019-05-15T08:27:40.024Z,82.18
2019-05-15T08:30:10.958Z,81.57
2019-05-15T08:32:39.447Z,81.76
2019-05-15T08:35:09.196Z,83.28
2019-05-15T08:37:38.558Z,83.54
2019-05-15T08:40:08.821Z,81.27
2019-05-15T08:42:41.578Z,82.75
2019-05-15T08:45:09.431Z,83.49
2019-05-15T08:47:38.577Z,84.50
2019-05-15T08:50:08.888Z,83.54
2019-05-15T08:52:39.366Z,82.11
2019-05-15T08:55:08.899Z,82.21
2019-05-15T08:57:38.306Z,82.00
2019-05-15T09:00:09.684Z,81.16
2019-05-15T09:02:38.856Z,80.16
2019-05-15T09:05:08.887Z,79.46
2019-05-15T09:07:38.655Z,77.96
2019-05-15T09:10:11.228Z,79.27
2019-05-15T09:12:39.788Z,80.76
2019-05-15T09:15:10.549Z,82.09
2019-05-15T09:17:39.864Z,81.42
2019-05-15T09:20:09.651Z,80.86
2019-05-15T09:22:38.469Z,80.98
2019-05-15T09:25:09.054Z,79.82
2019-05-15T09:27:38.416Z,81.63
2019-05-15T09:30:08.885Z,80.92
2019-05-15T09:32:39.269Z,80.42
2019-05-15T09:35:08.795Z,81.09
2019-05-15T09:37:38.624Z,80.48
2019-05-15T09:40:09.048Z,80.27
2019-05-15T09:42:38.834Z,81.37
2019-05-15T09:45:08.937Z,80.81
2019-05-15T09:47:39.685Z,81.19
2019-05-15T09:50:09.779Z,82.99
2019-05-15T09:52:39.433Z,80.67
2019-05-15T09:55:09.621Z,79.82
2019-05-15T09:57:38.906Z,79.79
2019-05-15T10:00:12.536Z,80.61
2019-05-15T10:02:41.033Z,80.17
2019-05-15T10:05:13.057Z,80.17
2019-05-15T10:07:41.644Z,79.93
2019-05-15T10:10:10.776Z,81.90
2019-05-15T10:12:39.404Z,79.93
2019-05-15T10:15:11.364Z,79.75
2019-05-15T10:17:39.421Z,78.98
2019-05-15T10:20:09.108Z,78.48
2019-05-15T10:22:37.842Z,79.07
2019-05-15T10:25:08.435Z,81.06
2019-05-15T10:27:39.541Z,79.90
2019-05-15T10:30:09.293Z,79.08
2019-05-15T10:32:39.618Z,80.07
2019-05-15T10:35:23.700Z,81.50
2019-05-15T10:37:39.359Z,80.22
2019-05-15T10:40:10.182Z,80.27
2019-05-15T10:42:39.943Z,79.10
2019-05-15T10:45:10.974Z,79.41
2019-05-15T10:47:39.531Z,78.17
2019-05-15T10:50:09.975Z,79.80
2019-05-15T10:52:38.598Z,78.53
2019-05-15T10:55:09.406Z,78.90
2019-05-15T10:57:42.658Z,79.48
2019-05-15T11:00:09.527Z,79.78
2019-05-15T11:02:39.410Z,78.05
2019-05-15T11:05:09.999Z,78.33
2019-05-15T11:07:39.374Z,77.75
2019-05-15T11:10:08.822Z,79.30
2019-05-15T11:12:37.786Z,80.25
2019-05-15T11:15:11.349Z,81.39
2019-05-15T11:17:39.791Z,81.31
2019-05-15T11:20:09.238Z,79.67
2019-05-15T11:22:42.375Z,80.95
2019-05-15T11:25:10.201Z,80.95
2019-05-15T11:27:39.176Z,80.71
2019-05-15T11:30:12.011Z,80.39
2019-05-15T11:32:40.508Z,81.85
2019-05-15T11:35:09.734Z,80.85
2019-05-15T11:37:45.382Z,80.70
2019-05-15T11:40:13.155Z,79.15
2019-05-15T11:42:41.684Z,79.78
2019-05-15T11:45:11.102Z,79.14
2019-05-15T11:47:40.581Z,81.70
2019-05-15T11:50:11.182Z,81.51
2019-05-15T11:52:40.549Z,80.24
2019-05-15T11:55:09.827Z,79.35
2019-05-15T11:57:46.806Z,79.56
2019-05-15T12:00:17.192Z,80.10
2019-05-15T12:02:40.328Z,80.78
2019-05-15T12:05:09.580Z,81.87
2019-05-15T12:07:38.389Z,82.73
2019-05-15T12:10:10.510Z,80.98
2019-05-15T12:12:39.035Z,80.52
2019-05-15T12:15:08.427Z,79.98
2019-05-15T12:17:39.049Z,80.47
2019-05-15T12:20:10.790Z,79.18
2019-05-15T12:22:39.315Z,79.49
2019-05-15T12:25:09.970Z,80.48
2019-05-15T12:27:40.368Z,80.15
2019-05-15T12:30:11.541Z,81.26
2019-05-15T12:32:40.667Z,81.09
2019-05-15T12:35:10.066Z,81.77
2019-05-15T12:37:40.086Z,81.63
2019-05-15T13:00:14.033Z,82.79
2019-05-15T13:02:42.527Z,83.48
2019-05-15T13:05:11.452Z,83.20
2019-05-15T13:07:39.999Z,83.87
2019-05-15T13:10:09.256Z,82.96
2019-05-15T13:12:47.623Z,82.88
2019-05-15T13:15:09.673Z,81.10
2019-05-15T13:17:39.002Z,82.13
2019-05-15T13:20:07.757Z,84.00
2019-05-15T13:22:38.729Z,82.10
2019-05-15T13:25:08.628Z,80.16
2019-05-15T13:27:38.152Z,80.18
2019-05-15T13:30:09.330Z,81.71
2019-05-15T13:32:40.632Z,80.31
2019-05-15T13:35:09.845Z,81.02
2019-05-15T13:37:39.125Z,80.19
2019-05-15T13:40:09.295Z,81.82
2019-05-15T13:42:39.034Z,82.49
2019-05-15T13:45:12.775Z,81.85
2019-05-15T13:47:39.752Z,81.49
2019-05-15T13:50:08.754Z,81.51
2019-05-15T13:52:39.370Z,81.06
2019-05-15T13:55:09.196Z,81.58
2019-05-15T13:57:38.464Z,82.45
2019-05-15T14:00:11.694Z,82.10
2019-05-15T14:02:40.153Z,81.68
2019-05-15T14:05:09.839Z,80.52
2019-05-15T14:07:48.962Z,82.13
2019-05-15T14:10:10.179Z,82.84
2019-05-15T14:12:39.103Z,81.75
2019-05-15T14:15:09.243Z,81.93
2019-05-15T14:17:38.148Z,81.74
2019-05-15T14:20:09.327Z,80.80
2019-05-15T14:22:39.069Z,80.70
2019-05-15T14:25:08.969Z,79.80
2019-05-15T14:27:39.703Z,79.73
2019-05-15T14:30:09.904Z,79.72
2019-05-15T14:32:39.275Z,80.33
2019-05-15T14:35:09.519Z,79.29
2019-05-15T14:37:38.249Z,78.48
2019-05-15T14:40:08.994Z,78.31
2019-05-15T14:42:39.605Z,79.27
2019-05-15T14:45:09.312Z,80.44
2019-05-15T14:47:39.075Z,80.00
2019-05-15T14:50:10.144Z,79.28
2019-05-15T14:52:38.830Z,79.38
2019-05-15T14:55:08.014Z,79.94
2019-05-15T14:57:39.134Z,79.78
2019-05-15T15:00:09.120Z,79.57
2019-05-15T15:02:38.913Z,79.57
2019-05-15T15:05:08.922Z,79.47
2019-05-15T15:07:38.427Z,80.38
2019-05-15T15:10:08.126Z,81.07
2019-05-15T15:12:39.755Z,80.54
2019-05-15T15:15:10.406Z,81.01
2019-05-15T15:17:39.299Z,79.89
2019-05-15T15:20:08.567Z,80.39
2019-05-15T15:22:39.545Z,80.74
2019-05-15T15:25:09.512Z,81.27
2019-05-15T15:27:39.260Z,80.99
2019-05-15T15:30:09.487Z,81.10
2019-05-15T15:32:38.832Z,80.90
2019-05-15T15:35:08.798Z,81.37
2019-05-15T15:37:38.415Z,79.78
2019-05-15T15:40:09.168Z,80.05
2019-05-15T15:42:39.433Z,78.65
2019-05-15T15:45:09.688Z,78.85
2019-05-15T15:47:38.932Z,78.75
2019-05-15T15:50:09.503Z,79.75
2019-05-15T15:52:38.788Z,82.59
2019-05-15T15:55:08.896Z,82.88
2019-05-15T15:57:39.749Z,81.75
2019-05-15T16:00:10.747Z,80.12
2019-05-15T16:02:41.169Z,79.63
2019-05-15T16:05:10.124Z,79.22
2019-05-15T16:07:38.892Z,82.29
2019-05-15T16:10:08.410Z,81.06
2019-05-15T16:12:38.856Z,79.06
2019-05-15T16:15:09.038Z,79.12
2019-05-15T16:17:38.495Z,79.29
2019-05-15T16:20:08.782Z,81.24
2019-05-15T16:22:38.201Z,84.35
2019-05-15T16:25:20.793Z,85.10
2019-05-15T16:27:57.799Z,85.69
2019-05-15T16:30:28.185Z,84.40
2019-05-15T16:32:58.466Z,82.43
2019-05-15T16:35:28.976Z,82.11
2019-05-15T16:37:58.431Z,81.28
2019-05-15T16:40:28.761Z,82.31
2019-05-15T16:43:00.558Z,81.51
2019-05-15T16:45:28.974Z,80.74
2019-05-15T16:47:58.664Z,82.34
2019-05-15T16:50:28.635Z,81.21
2019-05-15T16:52:58.392Z,79.85
2019-05-15T16:55:28.609Z,80.45
2019-05-15T16:57:58.549Z,82.02
2019-05-15T17:00:29.199Z,81.53
2019-05-15T17:03:09.259Z,80.99
2019-05-15T17:05:29.143Z,82.78
2019-05-15T17:07:58.353Z,83.01
2019-05-15T17:10:28.212Z,84.98
2019-05-15T17:12:58.298Z,83.42
2019-05-15T17:15:27.989Z,83.28
2019-05-15T17:17:58.260Z,82.18
2019-05-15T17:20:28.387Z,81.73
2019-05-15T17:22:57.889Z,82.02
2019-05-15T17:25:26.666Z,81.39
2019-05-15T17:27:55.160Z,80.11
2019-05-15T17:30:23.795Z,81.15
2019-05-15T17:32:52.499Z,82.97
2019-05-15T17:35:20.986Z,81.30
2019-05-15T17:37:49.570Z,80.91
2019-05-15T17:40:18.526Z,81.36
2019-05-15T17:42:49.233Z,81.38
2019-05-15T17:45:19.923Z,81.15
2019-05-15T17:47:48.949Z,82.73
2019-05-15T17:50:19.112Z,81.71
2019-05-15T17:52:49.100Z,83.91
2019-05-15T17:55:18.583Z,83.58
2019-05-15T17:57:56.488Z,82.38
2019-05-15T18:00:19.123Z,82.57
2019-05-15T18:02:48.601Z,82.87
2019-05-15T18:05:18.787Z,80.92
2019-05-15T18:07:48.799Z,82.20
2019-05-15T18:10:18.810Z,82.97
2019-05-15T18:12:48.816Z,81.59
2019-05-15T18:15:17.814Z,80.57
2019-05-15T18:17:48.146Z,79.83
2019-05-15T18:20:31.078Z,79.36
2019-05-15T18:22:59.631Z,78.73
2019-05-15T18:25:28.299Z,80.08
2019-05-15T18:27:59.275Z,78.56
2019-05-15T18:30:28.210Z,78.74
2019-05-15T18:32:58.779Z,80.43
2019-05-15T18:35:29.262Z,80.92
2019-05-15T18:37:59.174Z,81.48
2019-05-15T18:40:28.035Z,80.78
2019-05-15T18:42:59.144Z,81.03
2019-05-15T18:45:28.956Z,81.28
2019-05-15T18:47:58.683Z,83.61
2019-05-15T18:50:28.397Z,82.59
2019-05-15T18:52:58.366Z,81.48
2019-05-15T18:55:27.184Z,79.82
2019-05-15T18:57:58.199Z,79.06
2019-05-15T19:00:25.970Z,78.27
2019-05-15T19:02:59.223Z,80.38
2019-05-15T19:05:28.092Z,78.53
2019-05-15T19:07:57.880Z,79.82
2019-05-15T19:10:28.203Z,82.21
2019-05-15T19:12:58.227Z,80.97
2019-05-15T19:15:28.747Z,80.39
2019-05-15T19:17:58.579Z,80.73
2019-05-15T19:20:28.050Z,82.08
2019-05-15T19:22:58.918Z,81.78
2019-05-15T19:25:28.577Z,80.58
2019-05-15T19:27:57.302Z,80.99
2019-05-15T19:30:28.496Z,80.21
2019-05-15T19:32:58.267Z,78.89
2019-05-15T19:35:28.049Z,79.27
2019-05-15T19:37:58.573Z,79.12
2019-05-15T19:40:28.356Z,79.42
2019-05-15T19:42:58.974Z,79.81
2019-05-15T19:45:28.195Z,81.10
2019-05-15T19:47:58.710Z,79.46
2019-05-15T19:50:28.700Z,79.46
2019-05-15T19:52:59.211Z,79.21
2019-05-15T19:55:27.959Z,78.92
2019-05-15T19:57:58.545Z,79.12
2019-05-15T20:00:28.481Z,79.64
2019-05-15T20:02:58.089Z,78.75
2019-05-15T20:05:28.976Z,78.92
2019-05-15T20:07:58.839Z,78.62
2019-05-15T20:10:29.381Z,78.58
2019-05-15T20:12:59.382Z,78.31
2019-05-15T20:15:28.519Z,79.37
2019-05-15T20:17:57.661Z,78.80
2019-05-15T20:20:28.379Z,78.74
2019-05-15T20:22:59.742Z,79.39
2019-05-15T20:25:27.850Z,78.52
2019-05-15T20:27:56.568Z,78.66
2019-05-15T20:30:25.236Z,79.83
2019-05-15T20:32:55.271Z,79.19
2019-05-15T20:35:23.784Z,78.80
2019-05-15T20:37:52.485Z,79.45
2019-05-15T20:40:20.990Z,79.42
2019-05-15T20:42:49.468Z,79.96
2019-05-15T20:45:18.860Z,79.41
2019-05-15T20:47:47.428Z,80.47
2019-05-15T20:50:16.076Z,80.06
2019-05-15T20:52:48.524Z,80.47
2019-05-15T20:55:15.905Z,79.29
2019-05-15T20:57:44.393Z,78.48
2019-05-15T21:00:15.000Z,78.39
2019-05-15T21:02:43.509Z,79.48
2019-05-15T21:05:12.070Z,79.13
2019-05-15T21:07:43.278Z,79.52
2019-05-15T21:10:13.201Z,80.11
2019-05-15T21:12:41.816Z,80.07
2019-05-15T21:15:11.241Z,78.76
2019-05-15T21:17:41.611Z,78.24
2019-05-15T21:20:10.170Z,79.73
2019-05-15T21:22:40.390Z,79.47
2019-05-15T21:25:10.673Z,79.18
2019-05-15T21:27:42.581Z,78.41
2019-05-15T21:30:11.697Z,78.71
2019-05-15T21:32:40.217Z,79.79
2019-05-15T21:35:09.679Z,79.51
2019-05-15T21:37:39.230Z,80.18
2019-05-15T21:40:09.310Z,79.53
2019-05-15T21:42:41.401Z,78.67
2019-05-15T21:45:14.373Z,78.95
2019-05-15T21:47:39.139Z,79.11
2019-05-15T21:50:08.374Z,79.57
2019-05-15T21:52:38.965Z,79.55
2019-05-15T21:55:09.629Z,80.43
2019-05-15T21:57:40.085Z,79.40
2019-05-15T22:00:11.711Z,79.27
2019-05-15T22:02:40.625Z,79.54
2019-05-15T22:05:09.450Z,78.97
2019-05-15T22:07:38.821Z,78.54
2019-05-15T22:10:10.811Z,78.81
2019-05-15T22:12:38.774Z,78.78
2019-05-15T22:15:09.025Z,78.85
2019-05-15T22:17:38.984Z,79.24
2019-05-15T22:20:08.812Z,79.51
2019-05-15T22:22:37.654Z,78.51
2019-05-15T22:25:11.394Z,78.80
2019-05-15T22:27:39.765Z,79.15
2019-05-15T22:30:10.030Z,78.70
2019-05-15T22:32:41.733Z,79.20
2019-05-15T22:35:13.691Z,78.85
2019-05-15T22:37:41.484Z,79.08
2019-05-15T22:40:11.162Z,78.02
2019-05-15T22:42:39.781Z,77.74
2019-05-15T22:45:11.809Z,78.22
2019-05-15T22:47:40.584Z,79.22
2019-05-15T22:50:09.937Z,78.78
2019-05-15T22:52:39.039Z,78.98
2019-05-15T22:55:08.274Z,77.89
2019-05-15T22:57:38.868Z,77.38
2019-05-15T23:00:08.820Z,77.53
2019-05-15T23:02:37.354Z,77.43
2019-05-15T23:05:23.194Z,76.76
2019-05-15T23:07:38.933Z,76.41
2019-05-15T23:10:09.034Z,76.73
2019-05-15T23:12:38.346Z,77.58
2019-05-15T23:15:08.678Z,77.48
2019-05-15T23:17:38.390Z,78.01
2019-05-15T23:20:08.796Z,78.29
2019-05-15T23:22:38.517Z,78.77
2019-05-15T23:25:07.526Z,78.18
2019-05-15T23:27:38.224Z,77.47
2019-05-15T23:30:09.027Z,78.08
2019-05-15T23:32:39.008Z,77.89
2019-05-15T23:35:08.229Z,77.66
2019-05-15T23:37:39.179Z,77.84
2019-05-15T23:40:08.827Z,78.22
2019-05-15T23:42:39.033Z,78.08
2019-05-15T23:45:09.425Z,78.15
2019-05-15T23:47:38.583Z,77.77
2019-05-15T23:50:07.533Z,77.67
2019-05-15T23:52:38.296Z,77.98
2019-05-15T23:55:08.556Z,78.26
2019-05-15T23:57:39.249Z,77.85
